sensor_id;sensor_type;location;lat;lon;timestamp;pressure;altitude;pressure_sealevel;temperature;humidity
39449;BME280;25151;45.566;9.382;2023-02-13T00:00:52;101824.19;;;19.38;48.70
39449;BME280;25151;45.566;9.382;2023-02-13T00:03:56;101823.41;;;19.37;48.70
39449;BME280;25151;45.566;9.382;2023-02-13T00:06:58;101830.56;;;19.35;48.78
39449;BME280;25151;45.566;9.382;2023-02-13T00:10:06;101831.78;;;19.34;48.67
39449;BME280;25151;45.566;9.382;2023-02-13T00:13:11;101823.78;;;19.32;48.80
39449;BME280;25151;45.566;9.382;2023-02-13T00:16:18;101824.94;;;19.28;48.78
39449;BME280;25151;45.566;9.382;2023-02-13T00:19:25;101830.53;;;19.28;48.62
39449;BME280;25151;45.566;9.382;2023-02-13T00:22:38;101822.94;;;19.25;49.05
39449;BME280;25151;45.566;9.382;2023-02-13T00:25:45;101821.31;;;19.24;48.79
39449;BME280;25151;45.566;9.382;2023-02-13T00:28:50;101828.91;;;19.23;48.87
39449;BME280;25151;45.566;9.382;2023-02-13T00:31:57;101827.72;;;19.21;48.85
39449;BME280;25151;45.566;9.382;2023-02-13T00:35:03;101829.28;;;19.18;48.59
39449;BME280;25151;45.566;9.382;2023-02-13T00:38:10;101822.09;;;19.17;48.83
39449;BME280;25151;45.566;9.382;2023-02-13T00:41:20;101828.09;;;19.19;48.92
39449;BME280;25151;45.566;9.382;2023-02-13T00:44:26;101831.28;;;19.17;48.79
39449;BME280;25151;45.566;9.382;2023-02-13T00:47:32;101829.28;;;19.14;48.91
39449;BME280;25151;45.566;9.382;2023-02-13T00:50:39;101832.88;;;19.15;48.68
39449;BME280;25151;45.566;9.382;2023-02-13T00:53:44;101828.88;;;19.12;48.85
39449;BME280;25151;45.566;9.382;2023-02-13T00:56:51;101827.25;;;19.11;48.87
39449;BME280;25151;45.566;9.382;2023-02-13T00:59:58;101833.63;;;19.08;48.91
39449;BME280;25151;45.566;9.382;2023-02-13T01:03:02;101842.00;;;19.08;48.88
39449;BME280;25151;45.566;9.382;2023-02-13T01:06:07;101842.00;;;19.08;48.86
39449;BME280;25151;45.566;9.382;2023-02-13T01:09:16;101848.03;;;19.10;48.93
39449;BME280;25151;45.566;9.382;2023-02-13T01:12:22;101850.00;;;19.06;49.02
39449;BME280;25151;45.566;9.382;2023-02-13T01:15:27;101850.00;;;19.06;48.90
39449;BME280;25151;45.566;9.382;2023-02-13T01:18:33;101841.19;;;19.04;49.01
39449;BME280;25151;45.566;9.382;2023-02-13T01:21:42;101842.38;;;19.03;48.91
39449;BME280;25151;45.566;9.382;2023-02-13T01:24:49;101846.78;;;19.04;48.99
39449;BME280;25151;45.566;9.382;2023-02-13T01:27:57;101840.78;;;19.02;48.97
39449;BME280;25151;45.566;9.382;2023-02-13T01:31:03;101840.78;;;19.02;48.99
39449;BME280;25151;45.566;9.382;2023-02-13T01:34:10;101842.38;;;19.03;49.02
39449;BME280;25151;45.566;9.382;2023-02-13T01:37:17;101845.94;;;19.00;48.96
39449;BME280;25151;45.566;9.382;2023-02-13T01:40:23;101843.97;;;19.01;48.98
39449;BME280;25151;45.566;9.382;2023-02-13T01:44:02;101839.97;;;18.98;48.97
39449;BME280;25151;45.566;9.382;2023-02-13T01:47:08;101845.16;;;19.00;48.99
39449;BME280;25151;45.566;9.382;2023-02-13T01:50:19;101847.16;;;18.99;48.96
39449;BME280;25151;45.566;9.382;2023-02-13T01:56:44;101838.38;;;18.97;49.04
39449;BME280;25151;45.566;9.382;2023-02-13T02:00:02;101845.94;;;18.97;49.12
39449;BME280;25151;45.566;9.382;2023-02-13T02:03:14;101833.53;;;18.94;49.05
39449;BME280;25151;45.566;9.382;2023-02-13T02:06:31;101841.94;;;18.94;49.05
39449;BME280;25151;45.566;9.382;2023-02-13T02:09:41;101846.31;;;18.95;49.18
39449;BME280;25151;45.566;9.382;2023-02-13T02:16:26;101843.13;;;18.93;49.03
39449;BME280;25151;45.566;9.382;2023-02-13T02:40:02;101829.13;;;18.89;49.14
39449;BME280;25151;45.566;9.382;2023-02-13T02:43:22;101835.09;;;18.88;49.11
39449;BME280;25151;45.566;9.382;2023-02-13T02:46:41;101831.09;;;18.85;49.06
39449;BME280;25151;45.566;9.382;2023-02-13T02:56:41;101825.88;;;18.84;49.00
39449;BME280;25151;45.566;9.382;2023-02-13T02:59:48;101827.06;;;18.83;49.13
39449;BME280;25151;45.566;9.382;2023-02-13T03:03:22;101828.28;;;18.82;49.25
39449;BME280;25151;45.566;9.382;2023-02-13T03:06:46;101830.66;;;18.83;49.21
39449;BME280;25151;45.566;9.382;2023-02-13T03:10:02;101828.28;;;18.82;49.12
39449;BME280;25151;45.566;9.382;2023-02-13T03:13:46;101825.47;;;18.82;49.22
39449;BME280;25151;45.566;9.382;2023-02-13T03:16:55;101823.88;;;18.81;49.22
39449;BME280;25151;45.566;9.382;2023-02-13T03:24:23;101825.06;;;18.80;49.17
39449;BME280;25151;45.566;9.382;2023-02-13T03:27:55;101823.06;;;18.80;49.16
39449;BME280;25151;45.566;9.382;2023-02-13T03:31:37;101827.84;;;18.80;49.23
39449;BME280;25151;45.566;9.382;2023-02-13T03:45:43;101816.63;;;18.73;49.22
39449;BME280;25151;45.566;9.382;2023-02-13T03:49:04;101833.00;;;18.74;49.13
39449;BME280;25151;45.566;9.382;2023-02-13T03:55:46;101831.00;;;18.75;49.20
39449;BME280;25151;45.566;9.382;2023-02-13T03:59:11;101826.63;;;18.74;49.38
39449;BME280;25151;45.566;9.382;2023-02-13T04:02:21;101823.03;;;18.73;49.21
39449;BME280;25151;45.566;9.382;2023-02-13T04:05:33;101838.59;;;18.74;49.22
39449;BME280;25151;45.566;9.382;2023-02-13T04:08:39;101826.19;;;18.72;48.96
39449;BME280;25151;45.566;9.382;2023-02-13T04:12:01;101839.75;;;18.70;49.16
39449;BME280;25151;45.566;9.382;2023-02-13T04:15:21;101832.53;;;18.68;49.44
39449;BME280;25151;45.566;9.382;2023-02-13T04:18:29;101836.56;;;18.71;49.23
39449;BME280;25151;45.566;9.382;2023-02-13T04:21:35;101838.13;;;18.68;49.20
39449;BME280;25151;45.566;9.382;2023-02-13T04:24:38;101837.31;;;18.68;49.29
39449;BME280;25151;45.566;9.382;2023-02-13T04:27:44;101829.31;;;18.66;49.30
39449;BME280;25151;45.566;9.382;2023-02-13T04:30:50;101831.34;;;18.70;49.18
39449;BME280;25151;45.566;9.382;2023-02-13T04:33:56;101829.31;;;18.66;49.26
39449;BME280;25151;45.566;9.382;2023-02-13T04:37:02;101835.31;;;18.68;49.42
39449;BME280;25151;45.566;9.382;2023-02-13T04:40:07;101831.72;;;18.68;49.21
39449;BME280;25151;45.566;9.382;2023-02-13T04:43:13;101828.13;;;18.67;49.26
39449;BME280;25151;45.566;9.382;2023-02-13T04:46:18;101826.94;;;18.65;49.26
39449;BME280;25151;45.566;9.382;2023-02-13T04:49:26;101827.72;;;18.65;49.24
39449;BME280;25151;45.566;9.382;2023-02-13T04:52:31;101826.53;;;18.66;49.27
39449;BME280;25151;45.566;9.382;2023-02-13T04:55:37;101827.72;;;18.65;49.26
39449;BME280;25151;45.566;9.382;2023-02-13T04:58:41;101823.31;;;18.64;49.31
39449;BME280;25151;45.566;9.382;2023-02-13T05:01:48;101826.06;;;18.61;49.08
39449;BME280;25151;45.566;9.382;2023-02-13T05:04:54;101827.31;;;18.63;49.30
39449;BME280;25151;45.566;9.382;2023-02-13T05:08:01;101822.91;;;18.62;49.29
39449;BME280;25151;45.566;9.382;2023-02-13T05:11:08;101831.66;;;18.61;49.20
39449;BME280;25151;45.566;9.382;2023-02-13T05:14:16;101834.88;;;18.63;49.24
39449;BME280;25151;45.566;9.382;2023-02-13T05:17:27;101835.28;;;18.61;49.31
39449;BME280;25151;45.566;9.382;2023-02-13T05:20:32;101830.88;;;18.60;49.23
39449;BME280;25151;45.566;9.382;2023-02-13T05:23:39;101832.50;;;18.61;49.34
39449;BME280;25151;45.566;9.382;2023-02-13T05:26:46;101830.88;;;18.60;49.39
39449;BME280;25151;45.566;9.382;2023-02-13T05:29:51;101820.88;;;18.59;49.12
39449;BME280;25151;45.566;9.382;2023-02-13T05:32:58;101828.88;;;18.57;49.21
39449;BME280;25151;45.566;9.382;2023-02-13T05:36:05;101830.03;;;18.56;49.21
39449;BME280;25151;45.566;9.382;2023-02-13T05:39:10;101840.44;;;18.59;49.30
39449;BME280;25151;45.566;9.382;2023-02-13T05:42:18;101837.25;;;18.57;49.41
39449;BME280;25151;45.566;9.382;2023-02-13T05:45:24;101826.84;;;18.54;49.20
39449;BME280;25151;45.566;9.382;2023-02-13T05:48:27;101844.00;;;18.56;49.32
39449;BME280;25151;45.566;9.382;2023-02-13T05:51:32;101830.84;;;18.53;49.20
39449;BME280;25151;45.566;9.382;2023-02-13T05:54:40;101834.03;;;18.55;49.28
39449;BME280;25151;45.566;9.382;2023-02-13T05:57:48;101830.03;;;18.56;49.27
39449;BME280;25151;45.566;9.382;2023-02-13T06:00:57;101834.81;;;18.56;49.29
39449;BME280;25151;45.566;9.382;2023-02-13T06:04:04;101837.22;;;18.54;49.30
39449;BME280;25151;45.566;9.382;2023-02-13T06:07:13;101833.63;;;18.53;49.18
39449;BME280;25151;45.566;9.382;2023-02-13T06:10:19;101848.00;;;18.55;49.30
39449;BME280;25151;45.566;9.382;2023-02-13T06:13:26;101838.38;;;18.53;49.50
39449;BME280;25151;45.566;9.382;2023-02-13T06:16:33;101843.97;;;18.53;49.26
39449;BME280;25151;45.566;9.382;2023-02-13T06:19:42;101848.75;;;18.52;49.17
39449;BME280;25151;45.566;9.382;2023-02-13T06:22:55;101853.19;;;18.53;49.28
39449;BME280;25151;45.566;9.382;2023-02-13T06:26:07;101860.72;;;18.53;49.20
39449;BME280;25151;45.566;9.382;2023-02-13T06:29:13;101861.94;;;18.52;49.30
39449;BME280;25151;45.566;9.382;2023-02-13T06:32:19;101863.53;;;18.53;49.28
39449;BME280;25151;45.566;9.382;2023-02-13T06:35:26;101859.53;;;18.50;49.32
39449;BME280;25151;45.566;9.382;2023-02-13T06:38:34;101865.13;;;18.50;49.28
39449;BME280;25151;45.566;9.382;2023-02-13T06:41:43;101861.91;;;18.48;49.12
39449;BME280;25151;45.566;9.382;2023-02-13T06:44:51;101869.13;;;18.49;49.33
39449;BME280;25151;45.566;9.382;2023-02-13T06:48:00;101872.31;;;18.51;49.39
39449;BME280;25151;45.566;9.382;2023-02-13T06:51:05;101859.50;;;18.47;49.26
39449;BME280;25151;45.566;9.382;2023-02-13T06:54:09;101865.09;;;18.47;49.48
39449;BME280;25151;45.566;9.382;2023-02-13T06:57:16;101874.69;;;18.49;49.19
39449;BME280;25151;45.566;9.382;2023-02-13T07:00:25;101875.50;;;18.50;49.29
39449;BME280;25151;45.566;9.382;2023-02-13T07:03:31;101879.06;;;18.47;49.22
39449;BME280;25151;45.566;9.382;2023-02-13T07:06:34;101882.25;;;18.49;48.98
39449;BME280;25151;45.566;9.382;2023-02-13T07:09:42;101882.69;;;18.51;49.25
39449;BME280;25151;45.566;9.382;2023-02-13T07:12:49;101885.50;;;18.54;49.10
39449;BME280;25151;45.566;9.382;2023-02-13T07:15:52;101891.94;;;18.58;49.13
39449;BME280;25151;45.566;9.382;2023-02-13T07:18:58;101887.94;;;18.59;49.12
39449;BME280;25151;45.566;9.382;2023-02-13T07:22:00;101893.59;;;18.66;48.99
39449;BME280;25151;45.566;9.382;2023-02-13T07:25:01;101894.47;;;18.71;48.95
39449;BME280;25151;45.566;9.382;2023-02-13T07:28:04;101892.91;;;18.73;48.94
39449;BME280;25151;45.566;9.382;2023-02-13T07:31:07;101899.31;;;18.77;48.87
39449;BME280;25151;45.566;9.382;2023-02-13T07:34:09;101893.38;;;18.86;48.94
39449;BME280;25151;45.566;9.382;2023-02-13T07:37:11;101903.03;;;18.96;48.80
39449;BME280;25151;45.566;9.382;2023-02-13T07:40:12;101906.28;;;19.01;48.83
39449;BME280;25151;45.566;9.382;2023-02-13T07:43:13;101904.72;;;19.07;48.58
39449;BME280;25151;45.566;9.382;2023-02-13T07:46:14;101907.56;;;19.14;48.66
39449;BME280;25151;45.566;9.382;2023-02-13T07:49:16;101912.03;;;19.23;48.55
39449;BME280;25151;45.566;9.382;2023-02-13T07:52:16;101906.06;;;19.28;48.58
39449;BME280;25151;45.566;9.382;2023-02-13T07:55:17;101903.31;;;19.35;48.69
39449;BME280;25151;45.566;9.382;2023-02-13T07:58:19;101905.72;;;19.40;48.46
39449;BME280;25151;45.566;9.382;2023-02-13T08:01:22;101916.56;;;19.45;48.42
39449;BME280;25151;45.566;9.382;2023-02-13T08:04:28;101921.81;;;19.54;48.37
39449;BME280;25151;45.566;9.382;2023-02-13T08:07:35;101910.22;;;19.59;48.13
39449;BME280;25151;45.566;9.382;2023-02-13T08:10:44;101908.69;;;19.65;48.14
39449;BME280;25151;45.566;9.382;2023-02-13T08:14:07;101901.91;;;19.70;47.84
39449;BME280;25151;45.566;9.382;2023-02-13T08:17:15;101909.94;;;19.75;47.99
39449;BME280;25151;45.566;9.382;2023-02-13T08:20:20;101907.16;;;19.78;48.02
39449;BME280;25151;45.566;9.382;2023-02-13T08:23:25;101906.78;;;19.80;47.99
39449;BME280;25151;45.566;9.382;2023-02-13T08:26:32;101911.97;;;19.85;47.81
39449;BME280;25151;45.566;9.382;2023-02-13T08:29:34;101908.78;;;19.90;47.98
39449;BME280;25151;45.566;9.382;2023-02-13T08:32:40;101900.00;;;19.88;47.66
39449;BME280;25151;45.566;9.382;2023-02-13T08:35:43;101916.00;;;19.91;47.74
39449;BME280;25151;45.566;9.382;2023-02-13T08:38:50;101906.00;;;19.94;47.68
39449;BME280;25151;45.566;9.382;2023-02-13T08:41:57;101902.41;;;19.93;47.87
39449;BME280;25151;45.566;9.382;2023-02-13T08:45:07;101899.63;;;19.93;47.92
39449;BME280;25151;45.566;9.382;2023-02-13T08:48:14;101902.81;;;19.95;47.59
39449;BME280;25151;45.566;9.382;2023-02-13T08:51:20;101901.66;;;20.00;47.85
39449;BME280;25151;45.566;9.382;2023-02-13T08:54:23;101903.63;;;19.99;47.78
39449;BME280;25151;45.566;9.382;2023-02-13T08:57:25;101898.84;;;20.03;47.81
39449;BME280;25151;45.566;9.382;2023-02-13T09:00:29;101896.84;;;20.00;47.76
39449;BME280;25151;45.566;9.382;2023-02-13T09:03:32;101898.03;;;20.03;47.63
39449;BME280;25151;45.566;9.382;2023-02-13T09:06:37;101888.84;;;20.02;47.64
39449;BME280;25151;45.566;9.382;2023-02-13T09:09:40;101889.25;;;20.04;47.71
39449;BME280;25151;45.566;9.382;2023-02-13T09:12:50;101888.06;;;20.09;47.74
39449;BME280;25151;45.566;9.382;2023-02-13T09:15:52;101891.66;;;20.09;47.67
39449;BME280;25151;45.566;9.382;2023-02-13T09:18:58;101895.28;;;20.13;47.56
39449;BME280;25151;45.566;9.382;2023-02-13T09:22:04;101884.50;;;20.16;47.46
39449;BME280;25151;45.566;9.382;2023-02-13T09:25:20;101890.91;;;20.20;47.61
39449;BME280;25151;45.566;9.382;2023-02-13T09:28:30;101893.31;;;20.25;47.49
39449;BME280;25151;45.566;9.382;2023-02-13T09:31:35;101890.09;;;20.26;47.57
39449;BME280;25151;45.566;9.382;2023-02-13T09:34:38;101883.31;;;20.27;47.38
39449;BME280;25151;45.566;9.382;2023-02-13T09:37:43;101884.50;;;20.30;47.38
39449;BME280;25151;45.566;9.382;2023-02-13T09:40:58;101876.50;;;20.32;47.43
39449;BME280;25151;45.566;9.382;2023-02-13T09:44:39;101888.09;;;20.34;47.10
39449;BME280;25151;45.566;9.382;2023-02-13T09:47:50;101886.50;;;20.33;47.32
39449;BME280;25151;45.566;9.382;2023-02-13T09:50:56;101882.91;;;20.32;47.27
39449;BME280;25151;45.566;9.382;2023-02-13T09:54:06;101885.31;;;20.34;46.93
39449;BME280;25151;45.566;9.382;2023-02-13T09:57:41;101884.50;;;20.33;47.14
39449;BME280;25151;45.566;9.382;2023-02-13T10:00:42;101879.69;;;20.34;47.02
39449;BME280;25151;45.566;9.382;2023-02-13T10:03:55;101878.91;;;20.37;47.04
39449;BME280;25151;45.566;9.382;2023-02-13T10:17:08;101880.50;;;20.45;46.96
39449;BME280;25151;45.566;9.382;2023-02-13T10:20:42;101875.75;;;20.49;46.83
39449;BME280;25151;45.566;9.382;2023-02-13T10:24:04;101864.94;;;20.51;46.56
39449;BME280;25151;45.566;9.382;2023-02-13T10:27:37;101871.75;;;20.57;46.58
39449;BME280;25151;45.566;9.382;2023-02-13T10:31:04;101861.31;;;20.61;46.67
39449;BME280;25151;45.566;9.382;2023-02-13T10:34:15;101866.16;;;20.65;46.58
39449;BME280;25151;45.566;9.382;2023-02-13T10:37:20;101865.34;;;20.68;46.29
39449;BME280;25151;45.566;9.382;2023-02-13T10:40:27;101864.94;;;20.73;46.39
39449;BME280;25151;45.566;9.382;2023-02-13T10:43:46;101853.31;;;20.74;46.38
39449;BME280;25151;45.566;9.382;2023-02-13T10:55:05;101837.28;;;20.82;45.97
39449;BME280;25151;45.566;9.382;2023-02-13T10:58:48;101838.50;;;20.84;46.07
39449;BME280;25151;45.566;9.382;2023-02-13T11:05:21;101836.47;;;20.92;45.84
39449;BME280;25151;45.566;9.382;2023-02-13T11:08:53;101830.88;;;20.96;45.90
39449;BME280;25151;45.566;9.382;2023-02-13T11:12:23;101830.06;;;20.99;45.95
39449;BME280;25151;45.566;9.382;2023-02-13T11:15:31;101814.84;;;21.00;45.96
39449;BME280;25151;45.566;9.382;2023-02-13T11:18:36;101823.25;;;21.03;45.83
39449;BME280;25151;45.566;9.382;2023-02-13T11:21:43;101814.81;;;21.03;45.93
39449;BME280;25151;45.566;9.382;2023-02-13T11:24:54;101811.19;;;21.06;46.20
39449;BME280;25151;45.566;9.382;2023-02-13T11:28:17;101804.78;;;21.06;46.12
39449;BME280;25151;45.566;9.382;2023-02-13T11:31:33;101801.59;;;21.07;46.52
39449;BME280;25151;45.566;9.382;2023-02-13T11:34:37;101800.38;;;21.08;46.56
39449;BME280;25151;45.566;9.382;2023-02-13T11:37:45;101807.56;;;21.09;46.45
39449;BME280;25151;45.566;9.382;2023-02-13T11:44:33;101793.97;;;21.08;46.62
39449;BME280;25151;45.566;9.382;2023-02-13T11:47:52;101794.34;;;21.06;46.76
39449;BME280;25151;45.566;9.382;2023-02-13T11:50:55;101798.00;;;21.07;46.88
39449;BME280;25151;45.566;9.382;2023-02-13T11:53:56;101791.56;;;21.06;46.86
39449;BME280;25151;45.566;9.382;2023-02-13T12:00:30;101799.97;;;21.06;47.06
39449;BME280;25151;45.566;9.382;2023-02-13T12:03:36;101795.56;;;21.05;47.29
39449;BME280;25151;45.566;9.382;2023-02-13T12:06:39;101786.34;;;21.05;46.83
39449;BME280;25151;45.566;9.382;2023-02-13T12:09:44;101783.53;;;21.08;47.05
39449;BME280;25151;45.566;9.382;2023-02-13T12:12:55;101777.94;;;21.05;47.07
39449;BME280;25151;45.566;9.382;2023-02-13T12:16:05;101771.53;;;21.01;47.42
39449;BME280;25151;45.566;9.382;2023-02-13T12:19:15;101777.94;;;21.05;47.15
39449;BME280;25151;45.566;9.382;2023-02-13T12:22:29;101772.34;;;21.05;47.41
39449;BME280;25151;45.566;9.382;2023-02-13T12:29:07;101757.50;;;21.04;47.21
39449;BME280;25151;45.566;9.382;2023-02-13T12:32:29;101758.31;;;21.01;47.25
39449;BME280;25151;45.566;9.382;2023-02-13T12:35:40;101744.28;;;21.01;47.32
39449;BME280;25151;45.566;9.382;2023-02-13T12:45:24;101730.69;;;21.00;47.76
39449;BME280;25151;45.566;9.382;2023-02-13T12:48:47;101735.88;;;20.98;47.45
39449;BME280;25151;45.566;9.382;2023-02-13T12:55:34;101724.28;;;20.96;47.37
39449;BME280;25151;45.566;9.382;2023-02-13T13:02:04;101711.50;;;20.95;47.62
39449;BME280;25151;45.566;9.382;2023-02-13T13:18:15;101692.69;;;20.88;47.89
39449;BME280;25151;45.566;9.382;2023-02-13T13:21:33;101692.28;;;20.86;47.57
39449;BME280;25151;45.566;9.382;2023-02-13T13:28:00;101685.06;;;20.85;47.59
39449;BME280;25151;45.566;9.382;2023-02-13T13:31:14;101678.66;;;20.84;47.72
39449;BME280;25151;45.566;9.382;2023-02-13T13:34:21;101667.03;;;20.82;47.76
39449;BME280;25151;45.566;9.382;2023-02-13T13:37:39;101679.88;;;20.83;47.82
39449;BME280;25151;45.566;9.382;2023-02-13T13:50:20;101668.28;;;20.78;47.91
39449;BME280;25151;45.566;9.382;2023-02-13T13:53:22;101670.69;;;20.76;48.07
39449;BME280;25151;45.566;9.382;2023-02-13T13:56:23;101663.09;;;20.76;47.85
39449;BME280;25151;45.566;9.382;2023-02-13T14:02:46;101661.88;;;20.74;48.12
39449;BME280;25151;45.566;9.382;2023-02-13T14:06:00;101660.28;;;20.73;47.92
39449;BME280;25151;45.566;9.382;2023-02-13T14:09:05;101646.69;;;20.71;48.27
39449;BME280;25151;45.566;9.382;2023-02-13T14:18:45;101641.09;;;20.68;48.01
39449;BME280;25151;45.566;9.382;2023-02-13T14:21:47;101638.69;;;20.66;48.28
39449;BME280;25151;45.566;9.382;2023-02-13T14:24:52;101642.69;;;20.65;48.27
39449;BME280;25151;45.566;9.382;2023-02-13T14:28:02;101630.28;;;20.62;48.26
39449;BME280;25151;45.566;9.382;2023-02-13T14:31:25;101630.28;;;20.62;48.32
39449;BME280;25151;45.566;9.382;2023-02-13T14:34:31;101631.50;;;20.61;47.90
39449;BME280;25151;45.566;9.382;2023-02-13T14:38:17;101634.69;;;20.63;48.18
39449;BME280;25151;45.566;9.382;2023-02-13T14:44:54;101626.31;;;20.60;48.29
39449;BME280;25151;45.566;9.382;2023-02-13T14:48:04;101618.69;;;20.60;48.12
39449;BME280;25151;45.566;9.382;2023-02-13T14:51:07;101625.09;;;20.61;48.15
39449;BME280;25151;45.566;9.382;2023-02-13T14:57:46;101622.28;;;20.61;48.31
39449;BME280;25151;45.566;9.382;2023-02-13T15:00:56;101617.47;;;20.61;48.54
39449;BME280;25151;45.566;9.382;2023-02-13T15:04:06;101613.09;;;20.57;48.71
39449;BME280;25151;45.566;9.382;2023-02-13T15:07:22;101618.72;;;20.53;48.67
39449;BME280;25151;45.566;9.382;2023-02-13T15:10:41;101602.69;;;20.50;48.78
39449;BME280;25151;45.566;9.382;2023-02-13T15:13:43;101613.50;;;20.48;48.83
39449;BME280;25151;45.566;9.382;2023-02-13T15:16:51;101607.50;;;20.46;48.69
39449;BME280;25151;45.566;9.382;2023-02-13T15:19:55;101604.31;;;20.44;48.79
39449;BME280;25151;45.566;9.382;2023-02-13T15:22:59;101609.13;;;20.44;48.91
39449;BME280;25151;45.566;9.382;2023-02-13T15:26:05;101597.50;;;20.42;48.63
39449;BME280;25151;45.566;9.382;2023-02-13T15:29:17;101610.72;;;20.41;48.64
39449;BME280;25151;45.566;9.382;2023-02-13T15:32:23;101611.13;;;20.39;48.59
39449;BME280;25151;45.566;9.382;2023-02-13T15:35:33;101611.13;;;20.39;48.71
39449;BME280;25151;45.566;9.382;2023-02-13T15:38:36;101610.72;;;20.37;48.68
39449;BME280;25151;45.566;9.382;2023-02-13T15:41:46;101609.13;;;20.36;48.63
39449;BME280;25151;45.566;9.382;2023-02-13T15:44:51;101604.34;;;20.33;48.70
39449;BME280;25151;45.566;9.382;2023-02-13T15:47:55;101607.56;;;20.32;48.83
39449;BME280;25151;45.566;9.382;2023-02-13T15:50:57;101606.75;;;20.31;48.85
39449;BME280;25151;45.566;9.382;2023-02-13T15:54:00;101609.94;;;20.30;48.65
39449;BME280;25151;45.566;9.382;2023-02-13T15:57:05;101609.56;;;20.28;48.45
39449;BME280;25151;45.566;9.382;2023-02-13T16:00:14;101600.38;;;20.27;48.48
39449;BME280;25151;45.566;9.382;2023-02-13T16:03:18;101605.16;;;20.27;48.67
39449;BME280;25151;45.566;9.382;2023-02-13T16:06:22;101618.75;;;20.28;48.89
39449;BME280;25151;45.566;9.382;2023-02-13T16:09:32;101605.97;;;20.27;48.83
39449;BME280;25151;45.566;9.382;2023-02-13T16:12:33;101617.97;;;20.28;48.74
39449;BME280;25151;45.566;9.382;2023-02-13T16:15:36;101603.97;;;20.28;48.95
39449;BME280;25151;45.566;9.382;2023-02-13T16:18:39;101608.78;;;20.27;49.01
39449;BME280;25151;45.566;9.382;2023-02-13T16:21:39;101608.78;;;20.27;48.81
39449;BME280;25151;45.566;9.382;2023-02-13T16:24:46;101612.38;;;20.28;49.13
39449;BME280;25151;45.566;9.382;2023-02-13T16:27:54;101615.97;;;20.28;49.17
39449;BME280;25151;45.566;9.382;2023-02-13T16:30:58;101627.16;;;20.28;49.31
39449;BME280;25151;45.566;9.382;2023-02-13T16:34:22;101622.78;;;20.27;49.33
39449;BME280;25151;45.566;9.382;2023-02-13T16:37:29;101625.16;;;20.25;49.23
39449;BME280;25151;45.566;9.382;2023-02-13T16:40:32;101623.16;;;20.26;49.32
39449;BME280;25151;45.566;9.382;2023-02-13T16:43:40;101624.38;;;20.25;49.27
39449;BME280;25151;45.566;9.382;2023-02-13T16:46:52;101623.56;;;20.24;49.55
39449;BME280;25151;45.566;9.382;2023-02-13T16:49:55;101630.34;;;20.23;49.50
39449;BME280;25151;45.566;9.382;2023-02-13T16:53:02;101623.56;;;20.24;49.40
39449;BME280;25151;45.566;9.382;2023-02-13T16:56:08;101628.38;;;20.24;49.49
39449;BME280;25151;45.566;9.382;2023-02-13T17:02:20;101636.78;;;20.17;49.20
39449;BME280;25151;45.566;9.382;2023-02-13T17:05:24;101631.56;;;20.19;49.42
39449;BME280;25151;45.566;9.382;2023-02-13T17:08:26;101636.78;;;20.17;49.29
39449;BME280;25151;45.566;9.382;2023-02-13T17:11:28;101634.00;;;20.17;49.14
39449;BME280;25151;45.566;9.382;2023-02-13T17:14:29;101645.19;;;20.17;49.14
39449;BME280;25151;45.566;9.382;2023-02-13T17:17:31;101649.22;;;20.16;49.38
39449;BME280;25151;45.566;9.382;2023-02-13T17:20:33;101644.41;;;20.16;49.33
39449;BME280;25151;45.566;9.382;2023-02-13T17:23:35;101659.59;;;20.15;49.39
39449;BME280;25151;45.566;9.382;2023-02-13T17:26:36;101653.19;;;20.14;49.20
39449;BME280;25151;45.566;9.382;2023-02-13T17:29:37;101650.38;;;20.14;49.29
39449;BME280;25151;45.566;9.382;2023-02-13T17:32:38;101653.19;;;20.14;49.46
39449;BME280;25151;45.566;9.382;2023-02-13T17:35:40;101653.97;;;20.15;49.14
39449;BME280;25151;45.566;9.382;2023-02-13T17:38:42;101649.22;;;20.16;49.33
39449;BME280;25151;45.566;9.382;2023-02-13T17:41:44;101650.00;;;20.16;49.10
39449;BME280;25151;45.566;9.382;2023-02-13T17:44:46;101655.19;;;20.14;49.19
39449;BME280;25151;45.566;9.382;2023-02-13T17:47:48;101661.22;;;20.12;49.35
39449;BME280;25151;45.566;9.382;2023-02-13T17:50:50;101665.22;;;20.11;49.26
39449;BME280;25151;45.566;9.382;2023-02-13T17:53:53;101654.81;;;20.08;49.18
39449;BME280;25151;45.566;9.382;2023-02-13T17:56:55;101666.00;;;20.08;49.40
39449;BME280;25151;45.566;9.382;2023-02-13T17:59:59;101664.41;;;20.07;49.22
39449;BME280;25151;45.566;9.382;2023-02-13T18:03:04;101669.19;;;20.07;49.16
39449;BME280;25151;45.566;9.382;2023-02-13T18:06:05;101678.00;;;20.05;48.98
39449;BME280;25151;45.566;9.382;2023-02-13T18:09:06;101676.00;;;20.02;49.08
39449;BME280;25151;45.566;9.382;2023-02-13T18:12:18;101680.00;;;20.01;48.70
39449;BME280;25151;45.566;9.382;2023-02-13T18:15:20;101675.63;;;20.00;48.85
39449;BME280;25151;45.566;9.382;2023-02-13T18:18:21;101674.00;;;19.99;48.91
39449;BME280;25151;45.566;9.382;2023-02-13T18:21:23;101681.22;;;20.00;49.13
39449;BME280;25151;45.566;9.382;2023-02-13T18:24:28;101679.59;;;19.99;48.97
39449;BME280;25151;45.566;9.382;2023-02-13T18:27:30;101676.41;;;19.97;48.93
39449;BME280;25151;45.566;9.382;2023-02-13T18:30:31;101676.41;;;19.97;49.34
39449;BME280;25151;45.566;9.382;2023-02-13T18:33:31;101683.22;;;19.96;49.37
39449;BME280;25151;45.566;9.382;2023-02-13T18:36:32;101679.63;;;19.96;49.77
39449;BME280;25151;45.566;9.382;2023-02-13T18:39:34;101681.22;;;19.93;49.52
39449;BME280;25151;45.566;9.382;2023-02-13T18:42:35;101676.81;;;19.92;49.55
39449;BME280;25151;45.566;9.382;2023-02-13T18:45:36;101682.44;;;19.92;49.48
39449;BME280;25151;45.566;9.382;2023-02-13T18:48:37;101685.22;;;19.92;49.59